sensor_id;sensor_type;location;lat;lon;timestamp;P1;durP1;ratioP1;P2;durP2;ratioP2
26311;SDS011;14019;56.964;24.016;2023-03-01T00:01:25;9.65;;;1.40;;
26311;SDS011;14019;56.964;24.016;2023-03-01T00:04:12;8.35;;;1.48;;
26311;SDS011;14019;56.964;24.016;2023-03-01T00:06:59;11.10;;;1.17;;
26311;SDS011;14019;56.964;24.016;2023-03-01T00:09:47;10.13;;;1.80;;
26311;SDS011;14019;56.964;24.016;2023-03-01T00:12:34;14.55;;;1.27;;
26311;SDS011;14019;56.964;24.016;2023-03-01T00:15:21;14.27;;;1.27;;
26311;SDS011;14019;56.964;24.016;2023-03-01T00:18:07;10.60;;;1.90;;
26311;SDS011;14019;56.964;24.016;2023-03-01T00:20:54;16.98;;;1.70;;
26311;SDS011;14019;56.964;24.016;2023-03-01T00:23:41;10.98;;;1.50;;
26311;SDS011;14019;56.964;24.016;2023-03-01T00:26:27;11.50;;;1.30;;
26311;SDS011;14019;56.964;24.016;2023-03-01T00:29:15;13.80;;;1.90;;
26311;SDS011;14019;56.964;24.016;2023-03-01T00:32:01;13.18;;;1.58;;
26311;SDS011;14019;56.964;24.016;2023-03-01T00:34:48;8.07;;;1.40;;
26311;SDS011;14019;56.964;24.016;2023-03-01T00:37:39;10.90;;;1.45;;
26311;SDS011;14019;56.964;24.016;2023-03-01T00:40:27;8.23;;;1.10;;
26311;SDS011;14019;56.964;24.016;2023-03-01T00:43:14;14.35;;;1.50;;
26311;SDS011;14019;56.964;24.016;2023-03-01T00:46:01;11.80;;;1.27;;
26311;SDS011;14019;56.964;24.016;2023-03-01T00:48:47;10.07;;;1.30;;
26311;SDS011;14019;56.964;24.016;2023-03-01T00:51:34;14.07;;;1.60;;
26311;SDS011;14019;56.964;24.016;2023-03-01T00:54:21;7.18;;;1.25;;
26311;SDS011;14019;56.964;24.016;2023-03-01T00:57:07;12.18;;;1.30;;
26311;SDS011;14019;56.964;24.016;2023-03-01T00:59:53;13.43;;;1.52;;
26311;SDS011;14019;56.964;24.016;2023-03-01T01:02:39;12.35;;;1.38;;
26311;SDS011;14019;56.964;24.016;2023-03-01T01:05:26;11.55;;;1.42;;
26311;SDS011;14019;56.964;24.016;2023-03-01T01:08:12;12.32;;;1.20;;
26311;SDS011;14019;56.964;24.016;2023-03-01T01:10:58;6.72;;;1.20;;
26311;SDS011;14019;56.964;24.016;2023-03-01T01:13:50;14.98;;;1.58;;
26311;SDS011;14019;56.964;24.016;2023-03-01T01:16:37;13.20;;;1.50;;
26311;SDS011;14019;56.964;24.016;2023-03-01T01:19:24;7.55;;;1.30;;
26311;SDS011;14019;56.964;24.016;2023-03-01T01:22:12;10.52;;;1.23;;
26311;SDS011;14019;56.964;24.016;2023-03-01T01:24:58;10.60;;;1.75;;
26311;SDS011;14019;56.964;24.016;2023-03-01T01:27:45;7.15;;;1.20;;
26311;SDS011;14019;56.964;24.016;2023-03-01T01:30:31;10.05;;;1.23;;
26311;SDS011;14019;56.964;24.016;2023-03-01T01:33:18;13.52;;;1.27;;
26311;SDS011;14019;56.964;24.016;2023-03-01T01:36:05;9.23;;;1.35;;
26311;SDS011;14019;56.964;24.016;2023-03-01T01:38:51;9.32;;;1.02;;
26311;SDS011;14019;56.964;24.016;2023-03-01T01:41:37;14.07;;;1.58;;
26311;SDS011;14019;56.964;24.016;2023-03-01T01:44:25;9.75;;;1.42;;
26311;SDS011;14019;56.964;24.016;2023-03-01T01:47:16;7.72;;;1.40;;
26311;SDS011;14019;56.964;24.016;2023-03-01T01:50:04;7.63;;;2.10;;
26311;SDS011;14019;56.964;24.016;2023-03-01T01:52:50;7.25;;;1.60;;
26311;SDS011;14019;56.964;24.016;2023-03-01T01:55:39;11.50;;;1.20;;
26311;SDS011;14019;56.964;24.016;2023-03-01T01:58:27;10.13;;;1.20;;
26311;SDS011;14019;56.964;24.016;2023-03-01T02:01:16;8.90;;;1.35;;
26311;SDS011;14019;56.964;24.016;2023-03-01T02:04:02;4.50;;;1.02;;
26311;SDS011;14019;56.964;24.016;2023-03-01T02:06:53;10.55;;;1.80;;
26311;SDS011;14019;56.964;24.016;2023-03-01T02:09:43;8.65;;;1.23;;
26311;SDS011;14019;56.964;24.016;2023-03-01T02:12:31;8.93;;;1.30;;
26311;SDS011;14019;56.964;24.016;2023-03-01T02:15:19;8.90;;;1.17;;
26311;SDS011;14019;56.964;24.016;2023-03-01T02:18:06;11.75;;;1.27;;
26311;SDS011;14019;56.964;24.016;2023-03-01T02:23:49;5.47;;;1.17;;
26311;SDS011;14019;56.964;24.016;2023-03-01T02:26:51;16.15;;;1.20;;
26311;SDS011;14019;56.964;24.016;2023-03-01T02:32:25;11.00;;;1.10;;
26311;SDS011;14019;56.964;24.016;2023-03-01T02:35:13;5.43;;;1.35;;
26311;SDS011;14019;56.964;24.016;2023-03-01T02:38:00;9.88;;;1.00;;
26311;SDS011;14019;56.964;24.016;2023-03-01T02:40:48;13.25;;;1.20;;
26311;SDS011;14019;56.964;24.016;2023-03-01T02:43:35;15.63;;;1.83;;
26311;SDS011;14019;56.964;24.016;2023-03-01T02:46:24;9.30;;;1.23;;
26311;SDS011;14019;56.964;24.016;2023-03-01T02:49:27;10.88;;;1.35;;
26311;SDS011;14019;56.964;24.016;2023-03-01T02:55:08;12.13;;;1.60;;
26311;SDS011;14019;56.964;24.016;2023-03-01T02:57:55;8.30;;;1.23;;
26311;SDS011;14019;56.964;24.016;2023-03-01T03:00:42;13.52;;;1.38;;
26311;SDS011;14019;56.964;24.016;2023-03-01T03:03:35;7.38;;;1.20;;
26311;SDS011;14019;56.964;24.016;2023-03-01T03:06:21;6.55;;;1.17;;
26311;SDS011;14019;56.964;24.016;2023-03-01T03:09:07;7.85;;;1.30;;
26311;SDS011;14019;56.964;24.016;2023-03-01T03:11:53;15.13;;;1.08;;
26311;SDS011;14019;56.964;24.016;2023-03-01T03:14:40;13.93;;;1.77;;
26311;SDS011;14019;56.964;24.016;2023-03-01T03:17:27;9.82;;;1.33;;
26311;SDS011;14019;56.964;24.016;2023-03-01T03:20:14;12.18;;;1.35;;
26311;SDS011;14019;56.964;24.016;2023-03-01T03:23:04;13.52;;;1.50;;
26311;SDS011;14019;56.964;24.016;2023-03-01T03:26:00;12.57;;;1.58;;
26311;SDS011;14019;56.964;24.016;2023-03-01T03:28:46;14.23;;;1.35;;
26311;SDS011;14019;56.964;24.016;2023-03-01T03:31:32;11.85;;;1.38;;
26311;SDS011;14019;56.964;24.016;2023-03-01T03:34:20;7.13;;;1.15;;
26311;SDS011;14019;56.964;24.016;2023-03-01T03:37:06;11.40;;;1.52;;
26311;SDS011;14019;56.964;24.016;2023-03-01T03:40:12;12.88;;;1.23;;
26311;SDS011;14019;56.964;24.016;2023-03-01T03:43:01;12.50;;;1.40;;
26311;SDS011;14019;56.964;24.016;2023-03-01T03:45:49;9.63;;;1.20;;
26311;SDS011;14019;56.964;24.016;2023-03-01T03:48:36;12.55;;;1.63;;
26311;SDS011;14019;56.964;24.016;2023-03-01T03:51:23;12.35;;;1.45;;
26311;SDS011;14019;56.964;24.016;2023-03-01T03:54:10;15.90;;;1.95;;
26311;SDS011;14019;56.964;24.016;2023-03-01T03:56:56;9.43;;;1.45;;
26311;SDS011;14019;56.964;24.016;2023-03-01T03:59:43;9.10;;;1.20;;
26311;SDS011;14019;56.964;24.016;2023-03-01T04:02:30;5.95;;;1.00;;
26311;SDS011;14019;56.964;24.016;2023-03-01T04:05:18;6.18;;;1.00;;
26311;SDS011;14019;56.964;24.016;2023-03-01T04:08:05;10.95;;;1.20;;
26311;SDS011;14019;56.964;24.016;2023-03-01T04:11:02;8.38;;;1.20;;
26311;SDS011;14019;56.964;24.016;2023-03-01T04:14:09;11.60;;;1.35;;
26311;SDS011;14019;56.964;24.016;2023-03-01T04:16:55;11.00;;;1.50;;
26311;SDS011;14019;56.964;24.016;2023-03-01T04:19:43;7.65;;;1.10;;
26311;SDS011;14019;56.964;24.016;2023-03-01T04:22:34;12.38;;;1.70;;
26311;SDS011;14019;56.964;24.016;2023-03-01T04:25:20;8.93;;;1.17;;
26311;SDS011;14019;56.964;24.016;2023-03-01T04:28:09;8.65;;;1.10;;
26311;SDS011;14019;56.964;24.016;2023-03-01T04:30:57;12.88;;;1.30;;
26311;SDS011;14019;56.964;24.016;2023-03-01T04:33:48;8.77;;;1.25;;
26311;SDS011;14019;56.964;24.016;2023-03-01T04:36:39;12.48;;;1.60;;
26311;SDS011;14019;56.964;24.016;2023-03-01T04:39:25;8.25;;;1.10;;
26311;SDS011;14019;56.964;24.016;2023-03-01T04:42:11;7.95;;;1.17;;
26311;SDS011;14019;56.964;24.016;2023-03-01T04:44:58;7.75;;;1.50;;
26311;SDS011;14019;56.964;24.016;2023-03-01T04:47:45;11.43;;;1.50;;
26311;SDS011;14019;56.964;24.016;2023-03-01T04:50:31;9.07;;;1.10;;
26311;SDS011;14019;56.964;24.016;2023-03-01T04:53:18;8.60;;;1.40;;
26311;SDS011;14019;56.964;24.016;2023-03-01T04:56:04;9.52;;;1.13;;
26311;SDS011;14019;56.964;24.016;2023-03-01T04:58:52;9.05;;;1.30;;
26311;SDS011;14019;56.964;24.016;2023-03-01T05:01:44;12.98;;;1.23;;
26311;SDS011;14019;56.964;24.016;2023-03-01T05:04:30;7.53;;;1.00;;
26311;SDS011;14019;56.964;24.016;2023-03-01T05:07:17;8.38;;;1.30;;
26311;SDS011;14019;56.964;24.016;2023-03-01T05:10:06;6.80;;;1.20;;
26311;SDS011;14019;56.964;24.016;2023-03-01T05:12:53;9.75;;;1.55;;
26311;SDS011;14019;56.964;24.016;2023-03-01T05:15:39;13.50;;;1.85;;
26311;SDS011;14019;56.964;24.016;2023-03-01T05:18:26;9.82;;;1.40;;
26311;SDS011;14019;56.964;24.016;2023-03-01T05:21:14;5.90;;;0.85;;
26311;SDS011;14019;56.964;24.016;2023-03-01T05:24:04;10.32;;;1.50;;
26311;SDS011;14019;56.964;24.016;2023-03-01T05:26:55;9.38;;;1.30;;
26311;SDS011;14019;56.964;24.016;2023-03-01T05:29:42;8.15;;;1.52;;
26311;SDS011;14019;56.964;24.016;2023-03-01T05:32:28;6.13;;;1.10;;
26311;SDS011;14019;56.964;24.016;2023-03-01T05:35:19;15.63;;;1.45;;
26311;SDS011;14019;56.964;24.016;2023-03-01T05:38:06;7.95;;;1.15;;
26311;SDS011;14019;56.964;24.016;2023-03-01T05:40:52;8.70;;;1.38;;
26311;SDS011;14019;56.964;24.016;2023-03-01T05:43:39;4.75;;;0.93;;
26311;SDS011;14019;56.964;24.016;2023-03-01T05:46:29;10.38;;;1.60;;
26311;SDS011;14019;56.964;24.016;2023-03-01T05:49:17;8.27;;;1.58;;
26311;SDS011;14019;56.964;24.016;2023-03-01T05:52:03;9.75;;;1.25;;
26311;SDS011;14019;56.964;24.016;2023-03-01T05:54:49;13.02;;;1.52;;
26311;SDS011;14019;56.964;24.016;2023-03-01T05:57:36;10.07;;;1.35;;
26311;SDS011;14019;56.964;24.016;2023-03-01T06:00:24;6.45;;;1.45;;
26311;SDS011;14019;56.964;24.016;2023-03-01T06:03:14;6.55;;;1.50;;
26311;SDS011;14019;56.964;24.016;2023-03-01T06:06:06;5.22;;;1.08;;
26311;SDS011;14019;56.964;24.016;2023-03-01T06:09:03;6.82;;;1.50;;
26311;SDS011;14019;56.964;24.016;2023-03-01T06:11:56;13.32;;;2.05;;
26311;SDS011;14019;56.964;24.016;2023-03-01T06:14:42;10.40;;;1.55;;
26311;SDS011;14019;56.964;24.016;2023-03-01T06:17:29;14.07;;;1.58;;
26311;SDS011;14019;56.964;24.016;2023-03-01T06:20:20;4.55;;;1.20;;
26311;SDS011;14019;56.964;24.016;2023-03-01T06:23:06;8.18;;;1.20;;
26311;SDS011;14019;56.964;24.016;2023-03-01T06:25:56;9.20;;;1.38;;
26311;SDS011;14019;56.964;24.016;2023-03-01T06:28:42;9.20;;;1.33;;
26311;SDS011;14019;56.964;24.016;2023-03-01T06:31:31;10.77;;;1.60;;
26311;SDS011;14019;56.964;24.016;2023-03-01T06:34:17;9.13;;;1.30;;
26311;SDS011;14019;56.964;24.016;2023-03-01T06:37:04;10.63;;;1.55;;
26311;SDS011;14019;56.964;24.016;2023-03-01T06:43:06;7.18;;;1.38;;
26311;SDS011;14019;56.964;24.016;2023-03-01T06:45:52;10.13;;;1.17;;
26311;SDS011;14019;56.964;24.016;2023-03-01T06:48:39;9.00;;;1.58;;
26311;SDS011;14019;56.964;24.016;2023-03-01T06:51:26;7.47;;;1.20;;
26311;SDS011;14019;56.964;24.016;2023-03-01T06:54:12;13.15;;;1.52;;
26311;SDS011;14019;56.964;24.016;2023-03-01T06:56:59;7.97;;;1.35;;
26311;SDS011;14019;56.964;24.016;2023-03-01T06:59:46;7.70;;;1.35;;
26311;SDS011;14019;56.964;24.016;2023-03-01T07:02:32;5.65;;;1.40;;
26311;SDS011;14019;56.964;24.016;2023-03-01T07:05:19;6.32;;;1.20;;
26311;SDS011;14019;56.964;24.016;2023-03-01T07:08:06;8.70;;;1.00;;
26311;SDS011;14019;56.964;24.016;2023-03-01T07:10:56;7.38;;;1.40;;
26311;SDS011;14019;56.964;24.016;2023-03-01T07:13:42;7.63;;;1.42;;
26311;SDS011;14019;56.964;24.016;2023-03-01T07:16:29;9.02;;;1.23;;
26311;SDS011;14019;56.964;24.016;2023-03-01T07:19:16;9.38;;;1.30;;
26311;SDS011;14019;56.964;24.016;2023-03-01T07:22:03;9.45;;;1.90;;
26311;SDS011;14019;56.964;24.016;2023-03-01T07:24:49;8.32;;;1.42;;
26311;SDS011;14019;56.964;24.016;2023-03-01T07:27:36;7.15;;;1.30;;
26311;SDS011;14019;56.964;24.016;2023-03-01T07:30:23;10.75;;;1.52;;
26311;SDS011;14019;56.964;24.016;2023-03-01T07:33:11;9.70;;;1.55;;
26311;SDS011;14019;56.964;24.016;2023-03-01T07:35:58;12.02;;;1.55;;
26311;SDS011;14019;56.964;24.016;2023-03-01T07:38:45;13.65;;;1.38;;
26311;SDS011;14019;56.964;24.016;2023-03-01T07:41:31;14.85;;;1.40;;
26311;SDS011;14019;56.964;24.016;2023-03-01T07:44:17;8.93;;;1.20;;
26311;SDS011;14019;56.964;24.016;2023-03-01T07:47:04;9.73;;;1.13;;
26311;SDS011;14019;56.964;24.016;2023-03-01T07:49:50;13.57;;;1.52;;
26311;SDS011;14019;56.964;24.016;2023-03-01T07:52:36;8.63;;;1.30;;
26311;SDS011;14019;56.964;24.016;2023-03-01T07:55:23;8.50;;;1.10;;
26311;SDS011;14019;56.964;24.016;2023-03-01T07:58:10;9.98;;;1.10;;
26311;SDS011;14019;56.964;24.016;2023-03-01T08:00:56;8.90;;;1.58;;
26311;SDS011;14019;56.964;24.016;2023-03-01T08:03:46;9.32;;;1.20;;
26311;SDS011;14019;56.964;24.016;2023-03-01T08:06:33;11.38;;;1.67;;
26311;SDS011;14019;56.964;24.016;2023-03-01T08:09:20;12.40;;;1.55;;
26311;SDS011;14019;56.964;24.016;2023-03-01T08:12:06;11.55;;;1.45;;
26311;SDS011;14019;56.964;24.016;2023-03-01T08:14:52;7.40;;;1.30;;
26311;SDS011;14019;56.964;24.016;2023-03-01T08:17:39;8.65;;;1.33;;
26311;SDS011;14019;56.964;24.016;2023-03-01T08:20:26;5.90;;;1.23;;
26311;SDS011;14019;56.964;24.016;2023-03-01T08:23:12;5.47;;;1.30;;
26311;SDS011;14019;56.964;24.016;2023-03-01T08:26:06;10.25;;;1.50;;
26311;SDS011;14019;56.964;24.016;2023-03-01T08:28:53;8.38;;;1.42;;
26311;SDS011;14019;56.964;24.016;2023-03-01T08:31:39;8.27;;;1.23;;
26311;SDS011;14019;56.964;24.016;2023-03-01T08:34:26;6.60;;;1.20;;
26311;SDS011;14019;56.964;24.016;2023-03-01T08:37:12;7.65;;;1.20;;
26311;SDS011;14019;56.964;24.016;2023-03-01T08:39:59;7.68;;;1.17;;
26311;SDS011;14019;56.964;24.016;2023-03-01T08:42:45;11.15;;;1.50;;
26311;SDS011;14019;56.964;24.016;2023-03-01T08:45:31;7.85;;;1.48;;
26311;SDS011;14019;56.964;24.016;2023-03-01T08:48:18;6.80;;;1.40;;
26311;SDS011;14019;56.964;24.016;2023-03-01T08:51:15;6.30;;;1.30;;
26311;SDS011;14019;56.964;24.016;2023-03-01T08:54:03;9.40;;;1.10;;
26311;SDS011;14019;56.964;24.016;2023-03-01T08:56:49;8.07;;;1.10;;
26311;SDS011;14019;56.964;24.016;2023-03-01T08:59:36;12.52;;;1.30;;
26311;SDS011;14019;56.964;24.016;2023-03-01T09:02:22;10.20;;;1.20;;
26311;SDS011;14019;56.964;24.016;2023-03-01T09:05:09;10.57;;;1.50;;
26311;SDS011;14019;56.964;24.016;2023-03-01T09:11:03;10.07;;;1.60;;
26311;SDS011;14019;56.964;24.016;2023-03-01T09:13:50;10.80;;;1.60;;
26311;SDS011;14019;56.964;24.016;2023-03-01T09:16:36;6.28;;;1.00;;
26311;SDS011;14019;56.964;24.016;2023-03-01T09:19:23;6.35;;;1.13;;
26311;SDS011;14019;56.964;24.016;2023-03-01T09:22:11;6.47;;;1.40;;
26311;SDS011;14019;56.964;24.016;2023-03-01T09:24:57;5.13;;;1.17;;
26311;SDS011;14019;56.964;24.016;2023-03-01T09:27:44;8.20;;;1.20;;
26311;SDS011;14019;56.964;24.016;2023-03-01T09:30:31;5.07;;;1.38;;
26311;SDS011;14019;56.964;24.016;2023-03-01T09:33:17;7.85;;;1.60;;
26311;SDS011;14019;56.964;24.016;2023-03-01T09:36:06;7.88;;;1.20;;
26311;SDS011;14019;56.964;24.016;2023-03-01T09:38:53;5.50;;;1.20;;
26311;SDS011;14019;56.964;24.016;2023-03-01T09:41:48;7.93;;;1.30;;
26311;SDS011;14019;56.964;24.016;2023-03-01T09:47:23;6.55;;;1.08;;
26311;SDS011;14019;56.964;24.016;2023-03-01T09:50:11;4.55;;;1.05;;
26311;SDS011;14019;56.964;24.016;2023-03-01T09:53:09;4.75;;;0.90;;
26311;SDS011;14019;56.964;24.016;2023-03-01T10:05:12;4.65;;;0.90;;
26311;SDS011;14019;56.964;24.016;2023-03-01T10:10:46;8.55;;;1.35;;
26311;SDS011;14019;56.964;24.016;2023-03-01T10:13:37;7.40;;;1.05;;
26311;SDS011;14019;56.964;24.016;2023-03-01T10:19:41;8.80;;;1.42;;
26311;SDS011;14019;56.964;24.016;2023-03-01T10:22:28;4.18;;;0.82;;
26311;SDS011;14019;56.964;24.016;2023-03-01T10:25:17;11.88;;;1.38;;
26311;SDS011;14019;56.964;24.016;2023-03-01T10:28:10;6.72;;;1.08;;
26311;SDS011;14019;56.964;24.016;2023-03-01T10:31:02;5.78;;;1.02;;
26311;SDS011;14019;56.964;24.016;2023-03-01T10:33:49;6.70;;;1.13;;
26311;SDS011;14019;56.964;24.016;2023-03-01T10:36:40;4.82;;;0.93;;
26311;SDS011;14019;56.964;24.016;2023-03-01T10:39:27;7.60;;;0.98;;
26311;SDS011;14019;56.964;24.016;2023-03-01T10:42:22;7.25;;;1.00;;
26311;SDS011;14019;56.964;24.016;2023-03-01T10:48:20;6.53;;;0.93;;
26311;SDS011;14019;56.964;24.016;2023-03-01T10:51:12;2.42;;;0.93;;
26311;SDS011;14019;56.964;24.016;2023-03-01T10:54:00;6.68;;;1.00;;
26311;SDS011;14019;56.964;24.016;2023-03-01T10:56:57;7.10;;;1.10;;
26311;SDS011;14019;56.964;24.016;2023-03-01T10:59:44;6.30;;;1.27;;
26311;SDS011;14019;56.964;24.016;2023-03-01T11:02:31;6.43;;;1.17;;
26311;SDS011;14019;56.964;24.016;2023-03-01T11:05:20;7.55;;;1.00;;
26311;SDS011;14019;56.964;24.016;2023-03-01T11:08:09;4.50;;;0.75;;
26311;SDS011;14019;56.964;24.016;2023-03-01T11:11:16;5.55;;;0.90;;
26311;SDS011;14019;56.964;24.016;2023-03-01T11:14:07;7.20;;;1.08;;
26311;SDS011;14019;56.964;24.016;2023-03-01T11:17:12;5.90;;;1.05;;
26311;SDS011;14019;56.964;24.016;2023-03-01T11:23:00;5.68;;;1.10;;
26311;SDS011;14019;56.964;24.016;2023-03-01T11:25:48;5.78;;;0.70;;
26311;SDS011;14019;56.964;24.016;2023-03-01T11:28:37;8.27;;;1.10;;
26311;SDS011;14019;56.964;24.016;2023-03-01T11:31:26;8.85;;;1.40;;
26311;SDS011;14019;56.964;24.016;2023-03-01T11:34:17;7.53;;;0.93;;
26311;SDS011;14019;56.964;24.016;2023-03-01T11:37:10;5.63;;;1.20;;
26311;SDS011;14019;56.964;24.016;2023-03-01T11:40:15;10.95;;;1.02;;
26311;SDS011;14019;56.964;24.016;2023-03-01T11:48:38;7.50;;;1.17;;
26311;SDS011;14019;56.964;24.016;2023-03-01T12:04:03;5.15;;;1.00;;
26311;SDS011;14019;56.964;24.016;2023-03-01T12:06:55;7.15;;;1.30;;
26311;SDS011;14019;56.964;24.016;2023-03-01T12:12:51;3.65;;;1.00;;
26311;SDS011;14019;56.964;24.016;2023-03-01T12:21:40;5.10;;;0.90;;
26311;SDS011;14019;56.964;24.016;2023-03-01T12:27:32;4.18;;;0.90;;
26311;SDS011;14019;56.964;24.016;2023-03-01T12:33:16;6.35;;;0.82;;
26311;SDS011;14019;56.964;24.016;2023-03-01T12:47:41;5.53;;;0.77;;
26311;SDS011;14019;56.964;24.016;2023-03-01T12:53:51;4.57;;;0.90;;
26311;SDS011;14019;56.964;24.016;2023-03-01T12:56:39;8.70;;;0.80;;
26311;SDS011;14019;56.964;24.016;2023-03-01T13:11:05;3.53;;;1.00;;
26311;SDS011;14019;56.964;24.016;2023-03-01T13:17:02;1.70;;;0.60;;
26311;SDS011;14019;56.964;24.016;2023-03-01T13:19:55;4.00;;;0.80;;
26311;SDS011;14019;56.964;24.016;2023-03-01T13:22:43;5.13;;;0.73;;
26311;SDS011;14019;56.964;24.016;2023-03-01T13:37:25;3.42;;;0.57;;
26311;SDS011;14019;56.964;24.016;2023-03-01T13:46:15;4.78;;;0.70;;
26311;SDS011;14019;56.964;24.016;2023-03-01T13:49:09;4.45;;;1.00;;
26311;SDS011;14019;56.964;24.016;2023-03-01T13:51:58;2.50;;;0.60;;
26311;SDS011;14019;56.964;24.016;2023-03-01T13:54:46;3.30;;;0.57;;
26311;SDS011;14019;56.964;24.016;2023-03-01T13:57:33;3.17;;;0.60;;
26311;SDS011;14019;56.964;24.016;2023-03-01T14:03:18;3.95;;;0.63;;
26311;SDS011;14019;56.964;24.016;2023-03-01T14:06:07;2.97;;;0.63;;
26311;SDS011;14019;56.964;24.016;2023-03-01T14:09:03;5.47;;;0.80;;
26311;SDS011;14019;56.964;24.016;2023-03-01T14:11:54;2.83;;;0.77;;
26311;SDS011;14019;56.964;24.016;2023-03-01T14:14:45;2.42;;;0.50;;
26311;SDS011;14019;56.964;24.016;2023-03-01T14:20:44;2.65;;;0.70;;
26311;SDS011;14019;56.964;24.016;2023-03-01T14:23:37;2.67;;;0.65;;
26311;SDS011;14019;56.964;24.016;2023-03-01T14:26:24;2.65;;;0.57;;
26311;SDS011;14019;56.964;24.016;2023-03-01T14:29:24;4.75;;;0.73;;
26311;SDS011;14019;56.964;24.016;2023-03-01T14:32:21;3.85;;;0.70;;
26311;SDS011;14019;56.964;24.016;2023-03-01T14:35:25;3.65;;;0.98;;
26311;SDS011;14019;56.964;24.016;2023-03-01T14:38:55;5.03;;;0.60;;
26311;SDS011;14019;56.964;24.016;2023-03-01T14:41:23;3.17;;;0.60;;
26311;SDS011;14019;56.964;24.016;2023-03-01T14:44:15;2.50;;;0.70;;
26311;SDS011;14019;56.964;24.016;2023-03-01T14:47:03;8.05;;;0.70;;
26311;SDS011;14019;56.964;24.016;2023-03-01T14:49:51;3.28;;;0.77;;
26311;SDS011;14019;56.964;24.016;2023-03-01T14:52:40;2.83;;;0.90;;
26311;SDS011;14019;56.964;24.016;2023-03-01T14:58:15;3.38;;;0.70;;
26311;SDS011;14019;56.964;24.016;2023-03-01T15:01:04;1.65;;;0.70;;
26311;SDS011;14019;56.964;24.016;2023-03-01T15:03:51;2.88;;;0.68;;
26311;SDS011;14019;56.964;24.016;2023-03-01T15:06:37;3.55;;;0.88;;
26311;SDS011;14019;56.964;24.016;2023-03-01T15:09:25;3.45;;;0.68;;
26311;SDS011;14019;56.964;24.016;2023-03-01T15:15:30;4.75;;;0.80;;
26311;SDS011;14019;56.964;24.016;2023-03-01T15:18:18;2.67;;;0.80;;
26311;SDS011;14019;56.964;24.016;2023-03-01T15:21:06;3.25;;;0.60;;
26311;SDS011;14019;56.964;24.016;2023-03-01T15:23:55;7.50;;;0.70;;
26311;SDS011;14019;56.964;24.016;2023-03-01T15:26:43;3.00;;;0.60;;
26311;SDS011;14019;56.964;24.016;2023-03-01T15:29:32;2.97;;;0.88;;
26311;SDS011;14019;56.964;24.016;2023-03-01T15:32:33;8.63;;;1.30;;
26311;SDS011;14019;56.964;24.016;2023-03-01T15:35:32;4.20;;;1.40;;
26311;SDS011;14019;56.964;24.016;2023-03-01T15:38:30;4.95;;;1.30;;
26311;SDS011;14019;56.964;24.016;2023-03-01T15:41:22;5.95;;;1.65;;
26311;SDS011;14019;56.964;24.016;2023-03-01T15:44:42;6.20;;;1.50;;
26311;SDS011;14019;56.964;24.016;2023-03-01T15:47:29;5.78;;;1.60;;
26311;SDS011;14019;56.964;24.016;2023-03-01T15:50:18;7.88;;;2.40;;
26311;SDS011;14019;56.964;24.016;2023-03-01T15:53:06;7.72;;;2.38;;
26311;SDS011;14019;56.964;24.016;2023-03-01T15:55:53;7.70;;;2.60;;
26311;SDS011;14019;56.964;24.016;2023-03-01T15:58:40;8.98;;;2.80;;
26311;SDS011;14019;56.964;24.016;2023-03-01T16:01:26;7.75;;;2.75;;
26311;SDS011;14019;56.964;24.016;2023-03-01T16:04:14;9.65;;;2.83;;
26311;SDS011;14019;56.964;24.016;2023-03-01T16:07:06;9.65;;;2.97;;
26311;SDS011;14019;56.964;24.016;2023-03-01T16:09:52;8.90;;;2.78;;
26311;SDS011;14019;56.964;24.016;2023-03-01T16:12:39;9.63;;;2.78;;
26311;SDS011;14019;56.964;24.016;2023-03-01T16:15:27;10.00;;;3.05;;
26311;SDS011;14019;56.964;24.016;2023-03-01T16:18:17;13.27;;;3.65;;
26311;SDS011;14019;56.964;24.016;2023-03-01T16:21:03;10.43;;;3.60;;
26311;SDS011;14019;56.964;24.016;2023-03-01T16:23:51;11.38;;;3.58;;
26311;SDS011;14019;56.964;24.016;2023-03-01T16:26:37;9.65;;;3.40;;
26311;SDS011;14019;56.964;24.016;2023-03-01T16:29:27;9.77;;;3.33;;
26311;SDS011;14019;56.964;24.016;2023-03-01T16:32:15;11.00;;;3.17;;
26311;SDS011;14019;56.964;24.016;2023-03-01T16:35:01;7.63;;;3.30;;
26311;SDS011;14019;56.964;24.016;2023-03-01T16:37:48;10.32;;;3.10;;
26311;SDS011;14019;56.964;24.016;2023-03-01T16:40:35;8.02;;;2.47;;
26311;SDS011;14019;56.964;24.016;2023-03-01T16:43:21;11.00;;;2.67;;
26311;SDS011;14019;56.964;24.016;2023-03-01T16:46:11;9.23;;;2.33;;
26311;SDS011;14019;56.964;24.016;2023-03-01T16:48:58;6.22;;;2.40;;
26311;SDS011;14019;56.964;24.016;2023-03-01T16:51:50;9.77;;;2.28;;
26311;SDS011;14019;56.964;24.016;2023-03-01T16:54:39;9.25;;;2.53;;
26311;SDS011;14019;56.964;24.016;2023-03-01T16:57:25;9.45;;;2.60;;
26311;SDS011;14019;56.964;24.016;2023-03-01T17:00:12;9.05;;;2.58;;
26311;SDS011;14019;56.964;24.016;2023-03-01T17:02:58;7.93;;;2.03;;
26311;SDS011;14019;56.964;24.016;2023-03-01T17:05:45;5.35;;;1.73;;
26311;SDS011;14019;56.964;24.016;2023-03-01T17:08:32;3.80;;;1.45;;
26311;SDS011;14019;56.964;24.016;2023-03-01T17:11:25;5.40;;;1.45;;
26311;SDS011;14019;56.964;24.016;2023-03-01T17:14:12;5.00;;;1.17;;
26311;SDS011;14019;56.964;24.016;2023-03-01T17:17:01;2.83;;;1.10;;
26311;SDS011;14019;56.964;24.016;2023-03-01T17:19:47;2.97;;;1.10;;
26311;SDS011;14019;56.964;24.016;2023-03-01T17:22:34;5.25;;;1.25;;
26311;SDS011;14019;56.964;24.016;2023-03-01T17:25:20;4.78;;;1.00;;
26311;SDS011;14019;56.964;24.016;2023-03-01T17:28:08;4.05;;;1.30;;
26311;SDS011;14019;56.964;24.016;2023-03-01T17:30:54;4.43;;;1.10;;
26311;SDS011;14019;56.964;24.016;2023-03-01T17:33:41;4.35;;;0.95;;
26311;SDS011;14019;56.964;24.016;2023-03-01T17:36:27;4.00;;;0.98;;
26311;SDS011;14019;56.964;24.016;2023-03-01T17:39:13;5.85;;;1.15;;
26311;SDS011;14019;56.964;24.016;2023-03-01T17:41:59;2.00;;;1.00;;
26311;SDS011;14019;56.964;24.016;2023-03-01T17:44:45;2.75;;;0.70;;
26311;SDS011;14019;56.964;24.016;2023-03-01T17:47:35;2.00;;;0.80;;
26311;SDS011;14019;56.964;24.016;2023-03-01T17:50:22;4.43;;;0.70;;
26311;SDS011;14019;56.964;24.016;2023-03-01T17:53:08;3.17;;;0.70;;
26311;SDS011;14019;56.964;24.016;2023-03-01T17:56:00;3.60;;;0.65;;
26311;SDS011;14019;56.964;24.016;2023-03-01T17:58:46;2.85;;;0.57;;
26311;SDS011;14019;56.964;24.016;2023-03-01T18:01:32;2.63;;;0.70;;
26311;SDS011;14019;56.964;24.016;2023-03-01T18:04:20;4.47;;;0.65;;
26311;SDS011;14019;56.964;24.016;2023-03-01T18:07:06;3.60;;;1.00;;
26311;SDS011;14019;56.964;24.016;2023-03-01T18:09:53;3.47;;;1.10;;
26311;SDS011;14019;56.964;24.016;2023-03-01T18:12:39;2.58;;;0.90;;
26311;SDS011;14019;56.964;24.016;2023-03-01T18:15:25;2.88;;;1.25;;
26311;SDS011;14019;56.964;24.016;2023-03-01T18:18:12;3.78;;;1.15;;
26311;SDS011;14019;56.964;24.016;2023-03-01T18:20:59;4.32;;;1.02;;
26311;SDS011;14019;56.964;24.016;2023-03-01T18:23:45;4.78;;;1.05;;
26311;SDS011;14019;56.964;24.016;2023-03-01T18:26:31;3.72;;;0.95;;
26311;SDS011;14019;56.964;24.016;2023-03-01T18:29:18;5.18;;;0.93;;
26311;SDS011;14019;56.964;24.016;2023-03-01T18:32:04;2.20;;;0.70;;
26311;SDS011;14019;56.964;24.016;2023-03-01T18:34:51;6.25;;;0.98;;
26311;SDS011;14019;56.964;24.016;2023-03-01T18:37:37;2.40;;;0.60;;
26311;SDS011;14019;56.964;24.016;2023-03-01T18:40:25;2.33;;;0.90;;
26311;SDS011;14019;56.964;24.016;2023-03-01T18:43:30;5.18;;;0.93;;
26311;SDS011;14019;56.964;24.016;2023-03-01T18:46:17;4.47;;;0.90;;
26311;SDS011;14019;56.964;24.016;2023-03-01T18:49:04;4.25;;;0.80;;